Time;durP1;ratioP1;P1;durP2;ratioP2;P2;SDS_P1;SDS_P2;PMS_P1;PMS_P2;Temp;Humidity;BMP_temperature;BMP_pressure;BME280_temperature;BME280_humidity;BME280_pressure;Samples;Min_cycle;Max_cycle;Signal;HPM_P1;HPM_P2
2023/05/14 00:00:35;;;;;;;11.13;8.37;;;12.70;41.60;;;;;;5063093;28;20466;-66
2023/05/14 00:03:02;;;;;;;12.80;9.17;;;12.70;41.80;;;;;;5062247;28;20465;-67
2023/05/14 00:05:30;;;;;;;15.37;9.60;;;12.60;41.90;;;;;;5062494;28;20485;-66
2023/05/14 00:07:57;;;;;;;12.87;9.03;;;12.60;41.90;;;;;;5065090;28;20473;-67
2023/05/14 00:10:23;;;;;;;14.10;10.00;;;12.60;42.00;;;;;;5064504;28;20469;-66
2023/05/14 00:12:51;;;;;;;12.93;9.33;;;12.60;42.30;;;;;;5061779;28;20945;-66
2023/05/14 00:15:18;;;;;;;12.20;9.93;;;12.60;42.20;;;;;;5061956;28;20496;-66
2023/05/14 00:17:45;;;;;;;16.13;9.80;;;12.50;42.30;;;;;;5068690;28;20546;-66
2023/05/14 00:20:12;;;;;;;13.70;9.30;;;12.50;42.40;;;;;;5067780;28;20518;-66
2023/05/14 00:22:40;;;;;;;14.93;9.90;;;12.50;42.50;;;;;;5066473;28;20456;-66
2023/05/14 00:25:08;;;;;;;14.97;10.40;;;12.40;42.60;;;;;;5067004;28;20465;-66
2023/05/14 00:27:36;;;;;;;12.97;9.60;;;12.40;42.60;;;;;;5067098;28;20452;-66
2023/05/14 00:30:04;;;;;;;15.00;10.63;;;12.30;42.80;;;;;;5064524;28;20461;-67
2023/05/14 00:32:31;;;;;;;14.70;10.70;;;12.20;42.90;;;;;;5066203;28;22397;-66
2023/05/14 00:34:58;;;;;;;13.90;10.10;;;12.30;43.10;;;;;;5066205;28;20504;-66
2023/05/14 00:37:25;;;;;;;14.30;10.20;;;12.30;43.20;;;;;;5068522;28;20501;-66
2023/05/14 00:39:53;;;;;;;15.17;10.60;;;12.30;43.20;;;;;;5065062;28;20468;-66
2023/05/14 00:42:19;;;;;;;14.33;10.43;;;12.30;43.30;;;;;;5062938;28;20465;-66
2023/05/14 00:44:46;;;;;;;12.87;10.50;;;12.30;43.30;;;;;;5066723;28;20480;-66
2023/05/14 00:47:13;;;;;;;14.00;9.80;;;12.30;43.40;;;;;;5065085;28;20480;-66
2023/05/14 00:49:40;;;;;;;16.10;10.83;;;12.30;43.50;;;;;;5068874;28;20464;-66
2023/05/14 00:52:07;;;;;;;14.17;10.27;;;12.30;43.50;;;;;;5067338;28;20465;-66
2023/05/14 00:54:35;;;;;;;14.70;10.10;;;12.30;43.60;;;;;;5063497;28;20461;-66
2023/05/14 00:57:04;;;;;;;15.13;11.47;;;12.30;43.60;;;;;;5068135;28;21062;-66
2023/05/14 00:59:31;;;;;;;13.93;10.50;;;12.30;43.60;;;;;;5069952;28;20465;-66
2023/05/14 01:01:58;;;;;;;14.63;11.00;;;12.30;43.60;;;;;;5068534;28;20461;-67
2023/05/14 01:04:25;;;;;;;14.03;10.97;;;12.30;43.80;;;;;;5063390;28;20461;-66
2023/05/14 01:07:02;;;;;;;15.80;12.43;;;12.30;43.80;;;;;;5066849;28;20476;-66
2023/05/14 01:09:35;;;;;;;14.80;10.43;;;12.30;44.00;;;;;;5063416;28;20492;-66
2023/05/14 01:12:11;;;;;;;18.60;11.60;;;12.30;44.60;;;;;;5068497;28;20457;-66
2023/05/14 01:14:44;;;;;;;15.87;10.67;;;12.30;44.00;;;;;;5066470;28;20453;-66
2023/05/14 01:17:12;;;;;;;16.50;11.07;;;12.30;44.10;;;;;;5064344;28;20481;-66
2023/05/14 01:19:41;;;;;;;14.40;11.20;;;12.30;44.00;;;;;;5067421;28;20469;-66
2023/05/14 01:22:10;;;;;;;17.10;11.80;;;12.30;44.10;;;;;;5068334;28;20456;-66
2023/05/14 01:24:37;;;;;;;15.40;11.00;;;12.30;44.10;;;;;;5065226;28;20461;-66
2023/05/14 01:27:10;;;;;;;15.10;11.30;;;12.40;44.20;;;;;;5061506;28;20477;-67
2023/05/14 01:29:40;;;;;;;15.30;11.70;;;12.30;44.20;;;;;;5065604;28;20472;-67
2023/05/14 01:32:08;;;;;;;15.07;11.37;;;12.40;44.10;;;;;;5065881;28;20461;-66
2023/05/14 01:34:37;;;;;;;15.70;11.80;;;12.40;44.20;;;;;;5075798;22;20500;-67
2023/05/14 01:37:05;;;;;;;16.60;11.63;;;12.40;44.10;;;;;;5069503;28;20484;-68
2023/05/14 01:39:36;;;;;;;15.60;10.87;;;12.40;44.10;;;;;;5067412;28;20568;-67
2023/05/14 01:42:05;;;;;;;15.90;11.50;;;12.40;44.20;;;;;;5066610;28;20545;-68
2023/05/14 01:44:32;;;;;;;15.00;10.63;;;12.40;44.20;;;;;;5068381;28;20981;-69
2023/05/14 01:46:59;;;;;;;14.87;11.10;;;12.40;44.40;;;;;;5068594;28;20492;-69
2023/05/14 01:49:26;;;;;;;17.30;11.40;;;12.40;44.30;;;;;;5069623;28;20545;-69
2023/05/14 01:51:53;;;;;;;14.93;10.93;;;12.50;44.40;;;;;;5066623;28;20547;-68
2023/05/14 01:54:19;;;;;;;15.13;10.87;;;12.50;44.30;;;;;;5060515;28;20462;-68
2023/05/14 01:56:47;;;;;;;16.80;10.77;;;12.50;44.20;;;;;;5066528;28;20484;-68
2023/05/14 01:59:14;;;;;;;15.40;11.70;;;12.50;44.70;;;;;;5065885;28;20465;-68
2023/05/14 02:01:41;;;;;;;14.80;11.10;;;12.50;44.50;;;;;;5064763;28;20477;-68
2023/05/14 02:04:08;;;;;;;18.60;12.73;;;12.50;44.40;;;;;;5065851;28;20468;-68
2023/05/14 02:06:35;;;;;;;15.03;11.07;;;12.50;44.50;;;;;;5065808;28;20489;-68
2023/05/14 02:09:02;;;;;;;17.83;11.93;;;12.50;44.40;;;;;;5068847;28;20465;-69
2023/05/14 02:11:28;;;;;;;16.00;11.90;;;12.50;44.70;;;;;;5067221;28;20461;-69
2023/05/14 02:13:56;;;;;;;14.60;11.53;;;12.50;44.90;;;;;;5063245;28;20457;-69
2023/05/14 02:16:23;;;;;;;16.00;12.70;;;12.40;44.90;;;;;;5064414;28;20496;-69
2023/05/14 02:18:50;;;;;;;17.90;11.60;;;12.40;44.90;;;;;;5063322;28;20454;-69
2023/05/14 02:21:17;;;;;;;18.43;12.87;;;12.40;44.90;;;;;;5064910;28;21098;-69
2023/05/14 02:23:44;;;;;;;17.10;13.30;;;12.40;45.00;;;;;;5066436;28;20466;-69
2023/05/14 02:26:12;;;;;;;18.10;12.20;;;12.40;45.30;;;;;;5062431;28;20481;-69
2023/05/14 02:28:38;;;;;;;16.73;12.20;;;12.30;45.60;;;;;;5057451;28;20941;-68
2023/05/14 02:31:07;;;;;;;21.43;13.60;;;12.30;45.70;;;;;;5064745;28;20473;-68
2023/05/14 02:33:33;;;;;;;17.67;13.10;;;12.30;45.80;;;;;;5065442;28;20476;-68
2023/05/14 02:36:00;;;;;;;17.50;11.97;;;12.30;46.00;;;;;;5061574;28;20488;-68
2023/05/14 02:38:27;;;;;;;15.77;12.57;;;12.20;46.20;;;;;;5065021;28;20863;-69
2023/05/14 02:40:53;;;;;;;19.83;13.97;;;12.20;46.20;;;;;;5063417;28;20959;-69
2023/05/14 02:43:20;;;;;;;18.00;13.80;;;12.30;46.50;;;;;;5067919;28;20476;-68
2023/05/14 02:45:47;;;;;;;16.37;12.57;;;12.20;46.40;;;;;;5067435;28;20473;-68
2023/05/14 02:48:15;;;;;;;20.20;13.03;;;12.30;46.50;;;;;;5061095;28;20468;-68
2023/05/14 02:50:42;;;;;;;19.43;13.50;;;12.30;46.50;;;;;;5068187;28;20483;-69
2023/05/14 02:53:09;;;;;;;16.97;13.30;;;12.30;46.40;;;;;;5067435;28;20461;-68
2023/05/14 02:55:36;;;;;;;16.77;12.57;;;12.30;46.20;;;;;;5067648;28;20894;-69
2023/05/14 02:58:03;;;;;;;16.77;12.33;;;12.30;46.10;;;;;;5061740;28;20485;-68
2023/05/14 03:00:30;;;;;;;18.50;12.93;;;12.40;46.00;;;;;;5062865;28;20465;-68
2023/05/14 03:02:56;;;;;;;20.37;13.07;;;12.40;46.00;;;;;;5065951;28;21127;-68
2023/05/14 03:05:24;;;;;;;16.90;12.30;;;12.40;45.80;;;;;;5064439;28;20493;-69
2023/05/14 03:07:52;;;;;;;16.80;12.63;;;12.40;45.70;;;;;;5061498;28;20461;-69
2023/05/14 03:10:19;;;;;;;15.33;11.73;;;12.40;45.60;;;;;;5066115;28;20544;-69
2023/05/14 03:12:46;;;;;;;16.10;11.70;;;12.50;45.60;;;;;;5067322;28;20465;-68
2023/05/14 03:15:13;;;;;;;15.83;12.10;;;12.50;45.40;;;;;;5064714;28;20953;-69
2023/05/14 03:17:39;;;;;;;16.47;12.20;;;12.50;45.30;;;;;;5065774;28;20485;-69
2023/05/14 03:20:07;;;;;;;18.83;13.87;;;12.50;45.30;;;;;;5066716;28;20469;-69
2023/05/14 03:22:35;;;;;;;18.10;13.47;;;12.50;45.20;;;;;;5061368;28;20469;-69
2023/05/14 03:25:02;;;;;;;18.17;14.23;;;12.50;45.10;;;;;;5060377;28;20975;-68
2023/05/14 03:27:29;;;;;;;17.83;14.67;;;12.50;45.20;;;;;;5059998;28;20454;-69
2023/05/14 03:29:55;;;;;;;18.50;14.10;;;12.50;45.10;;;;;;5066171;28;20468;-69
2023/05/14 03:32:22;;;;;;;15.73;12.40;;;12.50;45.00;;;;;;5064074;28;20877;-69
2023/05/14 03:34:49;;;;;;;16.10;12.90;;;12.50;45.10;;;;;;5089502;28;20468;-69
2023/05/14 03:37:15;;;;;;;15.97;13.23;;;12.50;45.20;;;;;;5086718;28;20483;-68
2023/05/14 03:39:44;;;;;;;16.70;13.70;;;12.50;45.10;;;;;;5065570;28;20457;-68
2023/05/14 03:42:10;;;;;;;15.43;12.97;;;12.50;45.10;;;;;;5061392;28;20465;-68
2023/05/14 03:44:37;;;;;;;16.10;12.47;;;12.50;45.00;;;;;;5067418;28;20460;-68
2023/05/14 03:47:04;;;;;;;17.20;12.50;;;12.60;45.70;;;;;;5062817;28;20501;-68
2023/05/14 03:49:31;;;;;;;17.10;12.17;;;12.60;44.90;;;;;;5061832;28;20462;-68
2023/05/14 03:51:58;;;;;;;17.40;12.47;;;12.60;44.80;;;;;;5065099;28;20457;-69
2023/05/14 03:54:25;;;;;;;16.80;12.43;;;12.60;44.90;;;;;;5071769;28;20462;-68
2023/05/14 03:56:53;;;;;;;16.67;11.93;;;12.60;44.90;;;;;;5065317;28;20500;-68
2023/05/14 03:59:20;;;;;;;16.23;13.67;;;12.60;44.70;;;;;;5071444;28;20457;-68
2023/05/14 04:01:46;;;;;;;17.10;12.20;;;12.60;44.60;;;;;;5068422;28;20472;-67
2023/05/14 04:04:13;;;;;;;18.00;14.20;;;12.60;44.60;;;;;;5070821;28;20469;-69
2023/05/14 04:06:40;;;;;;;18.93;14.43;;;12.60;44.60;;;;;;5071700;28;20960;-69
2023/05/14 04:09:06;;;;;;;17.50;13.40;;;12.60;44.60;;;;;;5066077;28;20473;-68
2023/05/14 04:11:33;;;;;;;18.37;13.67;;;12.60;44.70;;;;;;5068017;28;20469;-68
2023/05/14 04:14:01;;;;;;;16.10;13.10;;;12.60;44.60;;;;;;5067660;28;20457;-69
2023/05/14 04:16:28;;;;;;;18.67;12.97;;;12.60;44.50;;;;;;5068465;28;20477;-69
2023/05/14 04:18:55;;;;;;;17.13;13.03;;;12.60;44.40;;;;;;5070321;28;20511;-68
2023/05/14 04:21:21;;;;;;;18.20;14.30;;;12.60;44.50;;;;;;5068908;28;20885;-68
2023/05/14 04:23:49;;;;;;;17.30;13.23;;;12.60;44.50;;;;;;5068862;28;20457;-68
2023/05/14 04:26:17;;;;;;;20.13;14.90;;;12.60;44.60;;;;;;5066060;28;20481;-69
2023/05/14 04:28:43;;;;;;;18.23;13.00;;;12.60;44.30;;;;;;5067452;28;20806;-68
2023/05/14 04:31:14;;;;;;;18.17;14.00;;;12.70;44.60;;;;;;5066480;28;20461;-69
2023/05/14 04:33:40;;;;;;;17.67;14.37;;;12.70;44.50;;;;;;5067036;28;20490;-68
2023/05/14 04:36:08;;;;;;;18.83;13.83;;;12.70;44.40;;;;;;5067364;28;20860;-68
2023/05/14 04:38:34;;;;;;;16.50;12.60;;;12.70;44.30;;;;;;5065360;28;21252;-68
2023/05/14 04:41:01;;;;;;;18.43;13.80;;;12.70;44.10;;;;;;5069505;28;20809;-68
2023/05/14 04:43:28;;;;;;;19.50;14.47;;;12.70;44.00;;;;;;5068694;28;20496;-68
2023/05/14 04:45:55;;;;;;;17.60;13.63;;;12.80;43.80;;;;;;5070022;28;20496;-68
2023/05/14 04:48:23;;;;;;;19.53;14.90;;;12.70;43.90;;;;;;5069012;28;20461;-69
2023/05/14 04:50:50;;;;;;;19.53;13.37;;;12.70;44.00;;;;;;5070890;28;20469;-68
2023/05/14 04:53:17;;;;;;;18.70;14.40;;;12.70;43.90;;;;;;5069837;28;20607;-68
2023/05/14 04:55:44;;;;;;;18.23;13.87;;;12.80;43.80;;;;;;5068012;28;21193;-68
2023/05/14 04:58:11;;;;;;;16.83;14.40;;;12.80;43.70;;;;;;5069000;28;20563;-69
2023/05/14 05:00:38;;;;;;;19.93;13.80;;;12.80;43.60;;;;;;5068597;28;20524;-68
2023/05/14 05:03:05;;;;;;;17.77;13.53;;;12.80;43.80;;;;;;5068121;28;20953;-68
2023/05/14 05:05:34;;;;;;;18.30;14.20;;;12.80;43.60;;;;;;5067088;28;20480;-69
2023/05/14 05:08:00;;;;;;;20.10;14.90;;;12.80;43.50;;;;;;5067618;28;20510;-68
2023/05/14 05:10:27;;;;;;;18.77;13.80;;;12.80;43.70;;;;;;5068871;28;20824;-69
2023/05/14 05:12:54;;;;;;;18.63;14.60;;;12.80;43.60;;;;;;5069546;28;20469;-68
2023/05/14 05:15:20;;;;;;;16.97;13.33;;;12.80;43.60;;;;;;5065467;28;20867;-70
2023/05/14 05:17:47;;;;;;;18.33;14.40;;;12.80;43.40;;;;;;5067256;28;20489;-69
2023/05/14 05:20:14;;;;;;;18.23;14.07;;;12.80;43.40;;;;;;5068799;28;20457;-68
2023/05/14 05:22:42;;;;;;;17.63;13.90;;;12.90;43.30;;;;;;5063732;28;20989;-69
2023/05/14 05:25:10;;;;;;;17.80;12.93;;;12.90;43.30;;;;;;5067491;28;20457;-69
2023/05/14 05:27:37;;;;;;;16.97;13.30;;;12.90;43.20;;;;;;5067185;28;20457;-68
2023/05/14 05:30:06;;;;;;;17.87;13.90;;;12.90;43.00;;;;;;5067415;28;20464;-68
2023/05/14 05:32:32;;;;;;;18.50;13.27;;;12.90;42.90;;;;;;5067598;28;20841;-68
2023/05/14 05:35:00;;;;;;;20.00;14.40;;;13.00;42.80;;;;;;5066969;28;20465;-68
2023/05/14 05:37:27;;;;;;;17.37;13.53;;;13.00;42.90;;;;;;5068695;28;20492;-68
2023/05/14 05:39:55;;;;;;;20.10;14.63;;;13.00;43.00;;;;;;5053912;28;20465;-69
2023/05/14 05:42:22;;;;;;;17.83;13.70;;;13.00;42.80;;;;;;5068268;28;20468;-69
2023/05/14 05:44:49;;;;;;;18.90;14.63;;;13.10;42.70;;;;;;5067942;28;20551;-69
2023/05/14 05:47:15;;;;;;;16.50;12.73;;;13.10;42.50;;;;;;5067842;28;20507;-69
2023/05/14 05:49:42;;;;;;;16.47;12.67;;;13.10;42.30;;;;;;5065173;28;20464;-68
2023/05/14 05:52:09;;;;;;;15.80;12.90;;;13.10;42.10;;;;;;5069565;28;20484;-68
2023/05/14 05:54:38;;;;;;;17.50;13.43;;;13.20;41.90;;;;;;5066537;28;20473;-69
2023/05/14 05:57:06;;;;;;;19.33;13.87;;;13.20;41.60;;;;;;5066172;28;20488;-69
2023/05/14 05:59:33;;;;;;;20.93;14.53;;;13.20;41.60;;;;;;5067669;28;20461;-68
2023/05/14 06:02:00;;;;;;;16.83;13.73;;;13.20;41.20;;;;;;5060361;28;20465;-68
2023/05/14 06:04:26;;;;;;;17.50;14.40;;;13.20;41.10;;;;;;5065748;28;20502;-68
2023/05/14 06:06:53;;;;;;;17.53;12.80;;;13.30;41.10;;;;;;5069394;28;20492;-69
2023/05/14 06:09:20;;;;;;;19.03;13.97;;;13.30;41.10;;;;;;5068102;28;20465;-68
2023/05/14 06:11:47;;;;;;;17.53;14.00;;;13.20;41.00;;;;;;5066883;28;21010;-69
2023/05/14 06:14:15;;;;;;;17.07;13.67;;;13.30;40.80;;;;;;5067979;28;20468;-68
2023/05/14 06:16:42;;;;;;;18.87;14.67;;;13.40;40.60;;;;;;5066787;28;20477;-68
2023/05/14 06:19:08;;;;;;;18.90;15.27;;;13.40;40.50;;;;;;5064624;28;20486;-68
2023/05/14 06:21:35;;;;;;;19.37;14.10;;;13.40;40.30;;;;;;5067487;28;20976;-68
2023/05/14 06:24:02;;;;;;;17.23;13.70;;;13.40;40.30;;;;;;5061398;28;20462;-68
2023/05/14 06:26:29;;;;;;;18.00;13.90;;;13.40;40.30;;;;;;5064602;28;20485;-68
2023/05/14 06:28:55;;;;;;;16.77;13.87;;;13.40;40.00;;;;;;5067344;28;20465;-68
2023/05/14 06:31:24;;;;;;;16.80;13.90;;;13.40;39.80;;;;;;5067909;28;21027;-68
2023/05/14 06:33:50;;;;;;;17.87;14.07;;;13.40;39.70;;;;;;5077660;28;20468;-68
2023/05/14 06:36:17;;;;;;;16.37;12.23;;;13.40;39.40;;;;;;5091738;28;20483;-68
2023/05/14 06:38:44;;;;;;;18.53;14.50;;;13.40;39.20;;;;;;5075748;28;20473;-68
2023/05/14 06:41:10;;;;;;;16.47;13.50;;;13.40;39.00;;;;;;5067624;28;20465;-68
2023/05/14 06:43:37;;;;;;;19.53;14.63;;;13.40;38.90;;;;;;5065581;28;20453;-69
2023/05/14 06:46:04;;;;;;;16.80;13.23;;;13.40;38.80;;;;;;5068116;28;20499;-69
2023/05/14 06:48:32;;;;;;;18.47;13.13;;;13.50;38.80;;;;;;5066772;28;20480;-68
2023/05/14 06:50:59;;;;;;;17.37;12.37;;;13.50;38.70;;;;;;5068518;28;20461;-68
2023/05/14 06:53:26;;;;;;;18.23;13.07;;;13.60;38.60;;;;;;5063295;28;20453;-68
2023/05/14 06:55:52;;;;;;;15.53;11.57;;;13.60;38.30;;;;;;5064596;28;20485;-68
2023/05/14 06:58:19;;;;;;;14.40;12.10;;;13.60;37.90;;;;;;5065951;28;20492;-68
2023/05/14 07:00:46;;;;;;;15.23;12.30;;;13.70;37.70;;;;;;5066396;28;20472;-68
2023/05/14 07:03:13;;;;;;;15.87;12.60;;;13.80;37.20;;;;;;5068204;28;20457;-68
2023/05/14 07:05:41;;;;;;;16.93;12.77;;;13.80;36.90;;;;;;5065882;28;20496;-68
2023/05/14 07:08:07;;;;;;;13.83;11.33;;;13.70;36.70;;;;;;5066067;28;21218;-68
2023/05/14 07:10:34;;;;;;;14.43;11.27;;;13.80;36.40;;;;;;5067160;28;20453;-69
2023/05/14 07:13:02;;;;;;;15.33;11.97;;;13.80;36.10;;;;;;5065842;28;20997;-69
2023/05/14 07:15:28;;;;;;;15.00;11.93;;;13.80;36.10;;;;;;5066165;28;20481;-69
2023/05/14 07:17:55;;;;;;;15.67;12.60;;;13.80;35.70;;;;;;5065387;28;20488;-69
2023/05/14 07:20:22;;;;;;;19.77;12.77;;;13.80;35.60;;;;;;5061160;28;20468;-69
2023/05/14 07:22:52;;;;;;;15.70;12.80;;;13.80;35.10;;;;;;5064381;28;20497;-69
2023/05/14 07:25:19;;;;;;;16.37;12.77;;;13.80;34.90;;;;;;5064093;28;20988;-68
2023/05/14 07:27:46;;;;;;;14.57;12.33;;;13.80;35.10;;;;;;5064426;28;20465;-68
2023/05/14 07:30:13;;;;;;;15.00;12.77;;;13.80;35.10;;;;;;5065319;28;21123;-68
2023/05/14 07:32:40;;;;;;;16.50;12.40;;;13.80;35.20;;;;;;5066564;28;20503;-68
2023/05/14 07:35:07;;;;;;;14.23;12.00;;;13.80;35.80;;;;;;5061307;28;20469;-68
2023/05/14 07:37:34;;;;;;;12.50;10.50;;;13.80;35.10;;;;;;5066651;28;20465;-68
2023/05/14 07:40:02;;;;;;;13.03;11.10;;;13.90;35.00;;;;;;5060669;28;20478;-68
2023/05/14 07:42:29;;;;;;;13.53;10.80;;;13.90;33.90;;;;;;5065641;28;20464;-68
2023/05/14 07:44:56;;;;;;;13.63;10.57;;;13.90;33.60;;;;;;5062480;28;21014;-68
2023/05/14 07:47:23;;;;;;;15.90;10.30;;;13.80;33.60;;;;;;5063223;28;20598;-68
2023/05/14 07:49:54;;;;;;;14.30;10.83;;;13.80;34.00;;;;;;5066163;28;20953;-69
2023/05/14 07:52:21;;;;;;;12.47;9.53;;;13.90;34.00;;;;;;5064902;28;20449;-69
2023/05/14 07:54:47;;;;;;;13.13;10.17;;;13.90;33.60;;;;;;5067377;28;20464;-68
2023/05/14 07:57:15;;;;;;;14.10;9.10;;;14.00;33.50;;;;;;5066928;28;20488;-68
2023/05/14 07:59:42;;;;;;;12.00;8.93;;;14.00;33.40;;;;;;5066138;28;20489;-68
2023/05/14 08:02:11;;;;;;;13.03;9.47;;;14.00;33.00;;;;;;5064032;28;20473;-69
2023/05/14 08:04:38;;;;;;;11.57;10.20;;;14.10;32.40;;;;;;5065351;28;21018;-68
2023/05/14 08:07:06;;;;;;;13.47;9.37;;;14.00;31.80;;;;;;5062632;28;20504;-68
2023/05/14 08:09:33;;;;;;;13.90;10.13;;;13.80;31.90;;;;;;5066579;28;20459;-68
2023/05/14 08:12:00;;;;;;;14.60;11.80;;;13.80;32.00;;;;;;5065319;28;20465;-68
2023/05/14 08:14:28;;;;;;;13.17;10.37;;;13.70;32.30;;;;;;5064846;28;20457;-68
2023/05/14 08:16:55;;;;;;;11.50;9.37;;;13.60;32.40;;;;;;5067438;28;20480;-68
2023/05/14 08:19:23;;;;;;;12.40;9.73;;;13.50;32.50;;;;;;5062791;28;20979;-68
2023/05/14 08:21:50;;;;;;;12.80;10.30;;;13.40;33.00;;;;;;5063727;28;20472;-68
2023/05/14 08:24:18;;;;;;;11.63;9.10;;;13.40;33.20;;;;;;5057065;28;20481;-68
2023/05/14 08:26:45;;;;;;;13.90;9.20;;;13.40;33.30;;;;;;5057992;28;20925;-69
2023/05/14 08:29:12;;;;;;;14.43;9.17;;;13.40;33.50;;;;;;5063617;28;20465;-70
2023/05/14 08:31:40;;;;;;;12.50;9.70;;;13.50;33.30;;;;;;5062376;28;20473;-68
2023/05/14 08:34:07;;;;;;;14.43;8.00;;;13.50;33.60;;;;;;5076627;22;20490;-68
2023/05/14 08:36:33;;;;;;;11.07;8.00;;;13.50;33.30;;;;;;5063622;28;20481;-69
2023/05/14 08:39:00;;;;;;;11.80;8.17;;;13.50;33.10;;;;;;5048530;28;20484;-69
2023/05/14 08:41:27;;;;;;;12.00;8.20;;;13.50;33.10;;;;;;5059381;28;20469;-68
2023/05/14 08:44:04;;;;;;;11.60;8.90;;;13.50;33.20;;;;;;5051079;28;20462;-67
2023/05/14 08:46:31;;;;;;;11.67;8.13;;;13.60;33.20;;;;;;5055748;28;20564;-67
2023/05/14 08:49:07;;;;;;;12.30;9.07;;;13.60;32.80;;;;;;5059643;28;20466;-68
2023/05/14 08:51:35;;;;;;;10.10;7.90;;;13.60;32.60;;;;;;5055167;28;20465;-67
2023/05/14 08:54:03;;;;;;;12.33;8.97;;;13.60;32.80;;;;;;5056750;28;20473;-66
2023/05/14 08:56:33;;;;;;;10.53;8.20;;;13.60;32.90;;;;;;5060706;28;20504;-66
2023/05/14 08:59:00;;;;;;;11.10;8.17;;;13.60;32.80;;;;;;5048989;28;20481;-66
2023/05/14 09:01:28;;;;;;;10.87;8.13;;;13.60;32.60;;;;;;5051631;28;20466;-66
2023/05/14 09:03:55;;;;;;;11.90;7.40;;;13.70;32.80;;;;;;5059327;28;20458;-67
2023/05/14 09:06:25;;;;;;;10.33;8.13;;;13.80;32.60;;;;;;5056009;28;20482;-66
2023/05/14 09:08:52;;;;;;;14.87;9.43;;;13.90;32.40;;;;;;5059899;28;20465;-66
2023/05/14 09:11:19;;;;;;;10.67;9.10;;;14.00;31.80;;;;;;5058608;28;20479;-66
2023/05/14 09:13:46;;;;;;;11.80;9.27;;;14.00;31.20;;;;;;5062029;28;20473;-66
2023/05/14 09:16:13;;;;;;;13.20;9.70;;;14.10;31.30;;;;;;5049889;28;20497;-67
2023/05/14 09:18:44;;;;;;;11.90;9.57;;;14.10;31.00;;;;;;5052347;28;20484;-70
2023/05/14 09:21:12;;;;;;;14.40;9.50;;;14.10;31.30;;;;;;5048878;28;20900;-69
2023/05/14 09:23:42;;;;;;;12.57;8.27;;;14.30;30.90;;;;;;5054365;28;20461;-66
2023/05/14 09:26:09;;;;;;;13.13;10.07;;;14.40;30.50;;;;;;5049055;28;20853;-64
2023/05/14 09:28:35;;;;;;;12.57;8.53;;;14.40;30.30;;;;;;5046265;28;20458;-64
2023/05/14 09:31:02;;;;;;;12.30;10.47;;;14.40;30.30;;;;;;5058234;28;20476;-67
2023/05/14 09:33:29;;;;;;;13.90;10.77;;;14.40;30.10;;;;;;5052894;28;20839;-67
2023/05/14 09:35:59;;;;;;;10.83;8.60;;;14.50;30.40;;;;;;5057211;28;20530;-67
2023/05/14 09:38:29;;;;;;;13.40;11.07;;;14.50;30.20;;;;;;5052775;28;21214;-68
2023/05/14 09:40:57;;;;;;;13.33;10.50;;;14.50;30.20;;;;;;5052906;28;20523;-66
2023/05/14 09:43:24;;;;;;;11.63;8.90;;;14.60;30.10;;;;;;5058387;28;20467;-68
2023/05/14 09:45:50;;;;;;;11.23;9.30;;;14.80;29.70;;;;;;5061852;28;20481;-68
2023/05/14 09:48:17;;;;;;;12.17;8.70;;;14.90;29.50;;;;;;5057837;28;20475;-67
2023/05/14 09:50:44;;;;;;;11.10;8.60;;;14.90;29.30;;;;;;5053210;28;20850;-68
2023/05/14 09:53:11;;;;;;;9.40;7.90;;;14.90;29.10;;;;;;5059921;28;20524;-67
2023/05/14 09:55:38;;;;;;;13.10;8.57;;;15.00;28.20;;;;;;5056253;28;20484;-67
2023/05/14 09:58:07;;;;;;;10.43;7.27;;;15.10;27.90;;;;;;5046503;28;21114;-67
2023/05/14 10:00:35;;;;;;;9.90;8.53;;;15.10;27.80;;;;;;5055412;28;20997;-65
2023/05/14 10:03:05;;;;;;;10.50;6.60;;;15.20;27.40;;;;;;5052220;28;20473;-68
2023/05/14 10:05:34;;;;;;;9.93;7.20;;;15.40;26.80;;;;;;5051640;28;20485;-64
2023/05/14 10:08:05;;;;;;;10.10;7.07;;;15.50;26.70;;;;;;5047671;28;20462;-64
2023/05/14 10:10:32;;;;;;;10.83;7.13;;;15.50;26.20;;;;;;5042238;28;20477;-66
2023/05/14 10:13:04;;;;;;;9.33;7.03;;;15.70;25.90;;;;;;5041937;28;20473;-64
2023/05/14 10:15:37;;;;;;;8.80;6.40;;;15.80;25.50;;;;;;5045619;28;21077;-69
2023/05/14 10:18:09;;;;;;;11.93;6.30;;;15.90;24.90;;;;;;5054148;28;20469;-67
2023/05/14 10:20:37;;;;;;;9.23;6.50;;;16.00;24.70;;;;;;5054433;28;20484;-69
2023/05/14 10:23:06;;;;;;;8.33;5.53;;;16.20;24.50;;;;;;5049779;28;20454;-68
2023/05/14 10:25:33;;;;;;;8.30;5.93;;;16.40;23.70;;;;;;5052026;28;20848;-68
2023/05/14 10:28:00;;;;;;;8.20;6.37;;;16.70;22.20;;;;;;5051540;28;20473;-69
2023/05/14 10:30:27;;;;;;;8.43;5.63;;;16.70;22.30;;;;;;5060545;28;20485;-70
2023/05/14 10:33:08;;;;;;;8.10;5.70;;;17.00;22.00;;;;;;5058351;28;20469;-69
2023/05/14 10:35:51;;;;;;;8.70;6.53;;;17.30;21.70;;;;;;5042155;28;20862;-66
2023/05/14 10:38:23;;;;;;;10.07;6.20;;;17.60;20.60;;;;;;5050143;28;20832;-67
2023/05/14 10:40:49;;;;;;;7.97;6.07;;;17.70;19.80;;;;;;5053142;28;20517;-67
2023/05/14 10:43:18;;;;;;;8.37;5.83;;;17.80;19.00;;;;;;5053344;28;20830;-70
2023/05/14 10:45:45;;;;;;;7.93;5.27;;;17.80;18.80;;;;;;5052003;28;20477;-69
2023/05/14 10:48:13;;;;;;;7.07;5.00;;;18.00;18.80;;;;;;5058595;28;20473;-68
2023/05/14 10:50:41;;;;;;;8.13;6.07;;;18.40;18.70;;;;;;5054162;28;20461;-68
2023/05/14 10:53:12;;;;;;;6.70;4.77;;;18.90;17.10;;;;;;5047861;28;20468;-68
2023/05/14 10:55:39;;;;;;;7.63;5.17;;;19.50;16.10;;;;;;5049958;28;21033;-68
2023/05/14 10:58:06;;;;;;;6.40;4.40;;;19.90;14.90;;;;;;5043029;28;20457;-68
2023/05/14 11:00:35;;;;;;;7.13;4.60;;;20.10;12.50;;;;;;5050881;28;20574;-69
2023/05/14 11:03:04;;;;;;;6.67;4.30;;;19.90;12.80;;;;;;5045277;28;20466;-68
2023/05/14 11:05:36;;;;;;;8.23;5.10;;;19.70;13.10;;;;;;5047508;28;20562;-67
2023/05/14 11:08:05;;;;;;;7.30;5.20;;;19.50;13.20;;;;;;5054182;28;20474;-66
2023/05/14 11:10:32;;;;;;;7.57;5.10;;;19.10;13.50;;;;;;5043242;28;20457;-67
2023/05/14 11:12:59;;;;;;;6.70;4.40;;;18.80;14.20;;;;;;5049359;28;20803;-68
2023/05/14 11:15:27;;;;;;;7.30;4.80;;;18.50;14.70;;;;;;5052992;28;21180;-70
2023/05/14 11:17:54;;;;;;;7.03;4.70;;;18.40;15.50;;;;;;5047289;28;20496;-63
2023/05/14 11:20:21;;;;;;;6.77;4.87;;;18.30;15.90;;;;;;5052225;28;20474;-63
2023/05/14 11:22:50;;;;;;;7.00;4.70;;;18.20;15.50;;;;;;5052255;28;20468;-63
2023/05/14 11:25:17;;;;;;;7.20;5.20;;;17.90;16.10;;;;;;5057120;28;20985;-65
2023/05/14 11:27:45;;;;;;;10.80;5.63;;;17.80;16.90;;;;;;5051095;28;20492;-63
2023/05/14 11:30:14;;;;;;;6.80;4.93;;;17.70;16.80;;;;;;5054619;28;20462;-63
2023/05/14 11:32:42;;;;;;;8.57;5.23;;;17.60;17.50;;;;;;5054286;28;20539;-63
2023/05/14 11:35:09;;;;;;;8.07;5.43;;;17.70;18.10;;;;;;5046227;28;20473;-63
2023/05/14 11:37:35;;;;;;;7.53;5.67;;;17.90;18.70;;;;;;5054708;28;20471;-63
2023/05/14 11:40:09;;;;;;;7.27;4.90;;;18.00;17.40;;;;;;5055246;28;20485;-63
2023/05/14 11:42:37;;;;;;;7.93;5.33;;;18.10;17.40;;;;;;5048256;28;20463;-63
2023/05/14 11:45:04;;;;;;;7.70;5.40;;;18.30;16.80;;;;;;5046706;28;20469;-64
2023/05/14 11:47:31;;;;;;;6.83;4.80;;;18.30;16.70;;;;;;5051312;28;20457;-63
2023/05/14 11:50:00;;;;;;;7.17;5.33;;;18.20;16.30;;;;;;5048912;28;20469;-63
2023/05/14 11:52:27;;;;;;;6.80;4.30;;;18.00;16.50;;;;;;5039351;28;20456;-63
2023/05/14 11:54:53;;;;;;;7.90;5.73;;;17.90;16.80;;;;;;5048124;28;20454;-63
2023/05/14 11:57:22;;;;;;;6.60;4.63;;;18.00;16.90;;;;;;5061229;28;20485;-63
2023/05/14 11:59:55;;;;;;;7.07;4.97;;;18.10;16.90;;;;;;5051338;28;20485;-63
2023/05/14 12:02:22;;;;;;;7.57;5.50;;;18.20;16.40;;;;;;5050750;28;20546;-63
2023/05/14 12:04:50;;;;;;;7.87;5.00;;;18.50;15.80;;;;;;5052399;28;20873;-63
2023/05/14 12:07:17;;;;;;;7.03;4.80;;;18.50;15.70;;;;;;5050449;28;20543;-63
2023/05/14 12:09:48;;;;;;;6.77;4.37;;;18.60;15.90;;;;;;5056466;28;20454;-63
2023/05/14 12:12:16;;;;;;;7.03;4.60;;;18.70;16.30;;;;;;5049780;28;20519;-65
2023/05/14 12:14:44;;;;;;;6.60;4.57;;;19.00;16.10;;;;;;5057235;28;20956;-65
2023/05/14 12:17:16;;;;;;;7.47;4.40;;;19.50;15.00;;;;;;5057579;28;20482;-63
2023/05/14 12:19:44;;;;;;;6.60;4.50;;;19.50;13.70;;;;;;5062339;28;20566;-63
2023/05/14 12:22:11;;;;;;;6.40;4.50;;;19.70;14.70;;;;;;5052224;28;20534;-63
2023/05/14 12:24:38;;;;;;;6.77;4.77;;;19.80;13.80;;;;;;5057495;28;20474;-65
2023/05/14 12:27:06;;;;;;;9.70;4.53;;;19.60;12.80;;;;;;5057569;28;21004;-65
2023/05/14 12:29:37;;;;;;;8.33;4.63;;;19.50;12.50;;;;;;5057396;28;20458;-63
2023/05/14 12:32:08;;;;;;;8.30;4.80;;;19.30;13.50;;;;;;5057790;28;21126;-63
2023/05/14 12:34:35;;;;;;;5.90;3.57;;;19.30;13.00;;;;;;5059221;28;20534;-63